Time,TemperatureF,DewpointF,PressureIn,WindDirection,WindDirectionDegrees,WindSpeedMPH,WindSpeedGustMPH,Humidity,HourlyPrecipIn,Conditions,Clouds,dailyrainin,SoftwareType,DateUTC
2013-06-18 00:04:00,54.2,31.0,29.84,WNW,289,0.0,2.0,41,0.00,,,0.00,WeatherTracker,2013-06-18 07:04:00,
2013-06-18 00:09:00,53.5,33.2,29.84,South,179,2.0,4.0,46,0.00,,,0.00,WeatherTracker,2013-06-18 07:09:00,
2013-06-18 00:14:00,52.9,32.7,29.84,SSW,193,2.0,7.0,46,0.00,,,0.00,WeatherTracker,2013-06-18 07:14:00,
2013-06-18 00:19:00,53.1,30.6,29.84,SSW,192,0.0,7.0,42,0.00,,,0.00,WeatherTracker,2013-06-18 07:19:00,
2013-06-18 00:24:00,52.4,34.8,29.84,SE,141,2.0,3.0,51,0.00,,,0.00,WeatherTracker,2013-06-18 07:24:00,
2013-06-18 00:29:00,51.4,35.3,29.84,SE,141,3.0,0.0,54,0.00,,,0.00,WeatherTracker,2013-06-18 07:29:00,
2013-06-18 00:34:00,49.6,35.4,29.84,SSE,167,0.0,4.0,58,0.00,,,0.00,WeatherTracker,2013-06-18 07:34:00,
2013-06-18 00:39:00,49.0,33.1,29.84,SSE,167,1.0,6.0,54,0.00,,,0.00,WeatherTracker,2013-06-18 07:39:00,
2013-06-18 00:44:00,48.7,34.2,29.84,SSE,167,0.0,6.0,57,0.00,,,0.00,WeatherTracker,2013-06-18 07:44:00,
2013-06-18 00:49:00,48.0,34.4,29.84,SSE,167,0.0,2.0,59,0.00,,,0.00,WeatherTracker,2013-06-18 07:49:00,
2013-06-18 00:54:00,47.4,34.6,29.84,SSE,167,2.0,2.0,61,0.00,,,0.00,WeatherTracker,2013-06-18 07:54:00,
2013-06-18 00:59:00,47.3,30.1,29.84,SSE,167,2.0,3.0,51,0.00,,,0.00,WeatherTracker,2013-06-18 07:59:00,
2013-06-18 01:04:00,48.3,33.8,29.84,SSE,167,1.0,3.0,57,0.00,,,0.00,WeatherTracker,2013-06-18 08:04:00,
2013-06-18 01:09:00,49.0,32.6,29.84,West,277,4.0,4.0,53,0.00,,,0.00,WeatherTracker,2013-06-18 08:09:00,
2013-06-18 01:14:00,48.9,33.5,29.84,ESE,119,4.0,4.0,55,0.00,,,0.00,WeatherTracker,2013-06-18 08:14:00,
2013-06-18 01:19:00,47.8,35.8,29.84,SE,134,4.0,4.0,63,0.00,,,0.00,WeatherTracker,2013-06-18 08:19:00,
2013-06-18 01:24:00,47.3,32.0,29.84,SSE,163,3.0,5.0,55,0.00,,,0.00,WeatherTracker,2013-06-18 08:24:00,
2013-06-18 01:29:00,45.8,33.1,29.84,South,179,0.0,6.0,61,0.00,,,0.00,WeatherTracker,2013-06-18 08:29:00,
2013-06-18 01:34:00,45.8,30.6,29.83,South,179,0.0,9.0,55,0.00,,,0.00,WeatherTracker,2013-06-18 08:34:00,
2013-06-18 01:39:00,46.4,32.4,29.83,South,179,0.0,9.0,58,0.00,,,0.00,WeatherTracker,2013-06-18 08:39:00,
2013-06-18 01:45:00,46.5,31.7,29.83,South,179,2.0,2.0,56,0.00,,,0.00,WeatherTracker,2013-06-18 08:45:00,
2013-06-18 01:50:00,46.7,31.4,29.83,SW,216,0.0,3.0,55,0.00,,,0.00,WeatherTracker,2013-06-18 08:50:00,
2013-06-18 01:55:00,46.6,32.2,29.83,SW,216,2.0,3.0,57,0.00,,,0.00,WeatherTracker,2013-06-18 08:55:00,
2013-06-18 02:00:00,45.8,31.4,29.83,WSW,252,4.0,4.0,57,0.00,,,0.00,WeatherTracker,2013-06-18 09:00:00,
2013-06-18 02:05:00,45.5,30.7,29.83,NW,310,0.0,6.0,56,0.00,,,0.00,WeatherTracker,2013-06-18 09:05:00,
2013-06-18 02:10:00,45.6,31.3,29.83,NW,311,2.0,6.0,57,0.00,,,0.00,WeatherTracker,2013-06-18 09:10:00,
2013-06-18 02:15:00,45.9,32.0,29.83,NW,311,0.0,3.0,58,0.00,,,0.00,WeatherTracker,2013-06-18 09:15:00,
2013-06-18 02:20:00,45.8,30.1,29.83,NW,312,0.0,3.0,54,0.00,,,0.00,WeatherTracker,2013-06-18 09:20:00,
2013-06-18 02:25:00,45.8,31.9,29.83,NW,312,0.0,2.0,58,0.00,,,0.00,WeatherTracker,2013-06-18 09:25:00,
2013-06-18 02:30:00,45.8,33.1,29.83,SE,144,0.0,5.0,61,0.00,,,0.00,WeatherTracker,2013-06-18 09:30:00,
2013-06-18 02:35:00,45.7,30.5,29.83,SE,144,1.0,5.0,55,0.00,,,0.00,WeatherTracker,2013-06-18 09:35:00,
2013-06-18 02:40:00,46.6,33.0,29.83,SE,144,0.0,2.0,59,0.00,,,0.00,WeatherTracker,2013-06-18 09:40:00,
2013-06-18 02:45:00,45.7,31.8,29.83,SW,223,1.0,4.0,58,0.00,,,0.00,WeatherTracker,2013-06-18 09:45:00,
2013-06-18 02:50:00,45.0,30.7,29.82,SSW,210,1.0,4.0,57,0.00,,,0.00,WeatherTracker,2013-06-18 09:50:00,
2013-06-18 02:55:00,44.1,31.1,29.82,SSW,210,1.0,3.0,60,0.00,,,0.00,WeatherTracker,2013-06-18 09:55:00,
2013-06-18 03:00:00,43.3,29.9,29.83,South,171,1.0,5.0,59,0.00,,,0.00,WeatherTracker,2013-06-18 10:00:00,
2013-06-18 03:05:00,43.3,29.1,29.83,South,171,0.0,5.0,57,0.00,,,0.00,WeatherTracker,2013-06-18 10:05:00,
2013-06-18 03:10:00,43.2,31.1,29.82,South,171,0.0,3.0,62,0.00,,,0.00,WeatherTracker,2013-06-18 10:10:00,
2013-06-18 03:15:00,43.1,30.2,29.83,South,171,0.0,3.0,60,0.00,,,0.00,WeatherTracker,2013-06-18 10:15:00,
2013-06-18 03:20:00,42.9,31.6,29.83,South,171,0.0,1.0,64,0.00,,,0.00,WeatherTracker,2013-06-18 10:20:00,
2013-06-18 03:25:00,42.5,32.3,29.83,South,171,3.0,3.0,67,0.00,,,0.00,WeatherTracker,2013-06-18 10:25:00,
2013-06-18 03:30:00,42.1,31.2,29.83,South,171,0.0,3.0,65,0.00,,,0.00,WeatherTracker,2013-06-18 10:30:00,
2013-06-18 03:35:00,42.2,33.1,29.83,South,171,2.0,3.0,70,0.00,,,0.00,WeatherTracker,2013-06-18 10:35:00,
2013-06-18 03:40:00,41.6,32.2,29.83,South,171,1.0,3.0,69,0.00,,,0.00,WeatherTracker,2013-06-18 10:40:00,
2013-06-18 03:45:00,41.9,30.6,29.82,South,171,0.0,3.0,64,0.00,,,0.00,WeatherTracker,2013-06-18 10:45:00,
2013-06-18 03:50:00,41.6,30.7,29.82,NW,325,2.0,5.0,65,0.00,,,0.00,WeatherTracker,2013-06-18 10:50:00,
2013-06-18 03:55:00,40.9,30.4,29.83,South,180,5.0,5.0,66,0.00,,,0.00,WeatherTracker,2013-06-18 10:55:00,
2013-06-18 04:00:00,40.5,32.2,29.82,South,173,0.0,6.0,72,0.00,,,0.00,WeatherTracker,2013-06-18 11:00:00,
2013-06-18 04:05:00,40.7,30.2,29.82,South,173,0.0,6.0,66,0.00,,,0.00,WeatherTracker,2013-06-18 11:05:00,
2013-06-18 04:10:00,41.8,25.9,29.82,South,173,1.0,2.0,53,0.00,,,0.00,WeatherTracker,2013-06-18 11:10:00,
2013-06-18 04:15:00,42.7,32.5,29.82,ESE,120,0.0,5.0,67,0.00,,,0.00,WeatherTracker,2013-06-18 11:15:00,
2013-06-18 04:20:00,41.7,32.6,29.82,ESE,117,0.0,5.0,70,0.00,,,0.00,WeatherTracker,2013-06-18 11:20:00,
2013-06-18 04:25:00,41.1,32.1,29.82,ESE,117,2.0,3.0,70,0.00,,,0.00,WeatherTracker,2013-06-18 11:25:00,
2013-06-18 04:30:00,40.6,30.9,29.82,SE,133,3.0,4.0,68,0.00,,,0.00,WeatherTracker,2013-06-18 11:30:00,
2013-06-18 04:35:00,41.3,28.9,29.82,SE,137,0.0,4.0,61,0.00,,,0.00,WeatherTracker,2013-06-18 11:35:00,
2013-06-18 04:40:00,42.2,28.9,29.82,ESE,115,3.0,4.0,59,0.00,,,0.00,WeatherTracker,2013-06-18 11:40:00,
2013-06-18 04:46:00,41.7,30.4,29.82,ESE,112,0.0,5.0,64,0.00,,,0.00,WeatherTracker,2013-06-18 11:46:00,
2013-06-18 04:51:00,41.1,30.6,29.82,ESE,112,0.0,5.0,66,0.00,,,0.00,WeatherTracker,2013-06-18 11:51:00,
2013-06-18 04:56:00,40.7,32.7,29.82,ESE,112,2.0,3.0,73,0.00,,,0.00,WeatherTracker,2013-06-18 11:56:00,
2013-06-18 05:01:00,40.6,31.9,29.82,ESE,115,2.0,3.0,71,0.00,,,0.00,WeatherTracker,2013-06-18 12:01:00,
2013-06-18 05:06:00,40.9,31.2,29.82,ESE,118,5.0,5.0,68,0.00,,,0.00,WeatherTracker,2013-06-18 12:06:00,
2013-06-18 05:11:00,40.8,29.2,29.81,ESE,121,2.0,7.0,63,0.00,,,0.00,WeatherTracker,2013-06-18 12:11:00,
2013-06-18 05:16:00,41.9,31.0,29.82,ESE,122,0.0,7.0,65,0.00,,,0.00,WeatherTracker,2013-06-18 12:16:00,
2013-06-18 05:21:00,41.8,29.7,29.82,ESE,122,0.0,4.0,62,0.00,,,0.00,WeatherTracker,2013-06-18 12:21:00,
2013-06-18 05:26:00,41.4,32.0,29.82,SSE,148,0.0,6.0,69,0.00,,,0.00,WeatherTracker,2013-06-18 12:26:00,
2013-06-18 05:31:00,40.9,30.8,29.82,SE,144,2.0,6.0,67,0.00,,,0.00,WeatherTracker,2013-06-18 12:31:00,
2013-06-18 05:36:00,40.6,30.5,29.81,SE,144,0.0,4.0,67,0.00,,,0.00,WeatherTracker,2013-06-18 12:36:00,
2013-06-18 05:41:00,41.1,29.9,29.82,SSE,150,0.0,5.0,64,0.00,,,0.00,WeatherTracker,2013-06-18 12:41:00,
2013-06-18 05:46:00,41.4,29.4,29.81,SSE,150,0.0,5.0,62,0.00,,,0.00,WeatherTracker,2013-06-18 12:46:00,
2013-06-18 05:51:00,41.3,30.4,29.81,SSE,151,2.0,4.0,65,0.00,,,0.00,WeatherTracker,2013-06-18 12:51:00,
2013-06-18 05:56:00,41.1,29.5,29.82,SSE,150,3.0,4.0,63,0.00,,,0.00,WeatherTracker,2013-06-18 12:56:00,
2013-06-18 06:01:00,41.9,29.8,29.81,SSE,150,0.0,4.0,62,0.00,,,0.00,WeatherTracker,2013-06-18 13:01:00,
2013-06-18 06:06:00,42.0,30.3,29.81,SE,131,0.0,3.0,63,0.00,,,0.00,WeatherTracker,2013-06-18 13:06:00,
2013-06-18 06:11:00,41.6,30.7,29.81,SE,127,3.0,3.0,65,0.00,,,0.00,WeatherTracker,2013-06-18 13:11:00,
2013-06-18 06:16:00,42.0,31.5,29.81,SE,133,0.0,4.0,66,0.00,,,0.00,WeatherTracker,2013-06-18 13:16:00,
2013-06-18 06:21:00,42.5,31.6,29.81,SE,136,0.0,4.0,65,0.00,,,0.00,WeatherTracker,2013-06-18 13:21:00,
2013-06-18 06:27:00,43.0,31.7,29.81,SE,136,0.0,4.0,64,0.00,,,0.00,WeatherTracker,2013-06-18 13:27:00,
2013-06-18 06:32:00,44.0,30.6,29.81,WNW,298,3.0,5.0,59,0.00,,,0.00,WeatherTracker,2013-06-18 13:32:00,
2013-06-18 06:37:00,45.8,29.2,29.81,WNW,298,2.0,5.0,52,0.00,,,0.00,WeatherTracker,2013-06-18 13:37:00,
2013-06-18 06:42:00,47.3,32.4,29.80,WNW,300,2.0,6.0,56,0.00,,,0.00,WeatherTracker,2013-06-18 13:42:00,
2013-06-18 06:47:00,48.4,34.3,29.81,WSW,246,0.0,6.0,58,0.00,,,0.00,WeatherTracker,2013-06-18 13:47:00,
2013-06-18 06:52:00,49.0,35.3,29.81,SE,125,1.0,4.0,59,0.00,,,0.00,WeatherTracker,2013-06-18 13:52:00,
2013-06-18 06:57:00,49.4,35.2,29.80,West,273,3.0,4.0,58,0.00,,,0.00,WeatherTracker,2013-06-18 13:57:00,
2013-06-18 07:02:00,49.7,33.7,29.81,West,277,3.0,4.0,54,0.00,,,0.00,WeatherTracker,2013-06-18 14:02:00,
2013-06-18 07:07:00,50.8,33.3,29.81,WNW,302,0.0,5.0,51,0.00,,,0.00,WeatherTracker,2013-06-18 14:07:00,
2013-06-18 07:12:00,52.1,35.0,29.80,WNW,302,0.0,5.0,52,0.00,,,0.00,WeatherTracker,2013-06-18 14:12:00,
2013-06-18 07:17:00,53.3,35.6,29.80,North,5,0.0,4.0,51,0.00,,,0.00,WeatherTracker,2013-06-18 14:17:00,
2013-06-18 07:22:00,53.8,34.6,29.80,NNW,343,2.0,4.0,48,0.00,,,0.00,WeatherTracker,2013-06-18 14:22:00,
2013-06-18 07:27:00,54.7,35.4,29.80,WNW,298,5.0,5.0,48,0.00,,,0.00,WeatherTracker,2013-06-18 14:27:00,
2013-06-18 07:32:00,55.5,35.6,29.80,NW,316,3.0,6.0,47,0.00,,,0.00,WeatherTracker,2013-06-18 14:32:00,
2013-06-18 07:37:00,56.2,36.2,29.79,NNW,336,3.0,6.0,47,0.00,,,0.00,WeatherTracker,2013-06-18 14:37:00,
2013-06-18 07:42:00,56.8,35.7,29.79,NW,317,4.0,6.0,45,0.00,,,0.00,WeatherTracker,2013-06-18 14:42:00,
2013-06-18 07:47:00,57.3,36.7,29.79,NW,317,4.0,7.0,46,0.00,,,0.00,WeatherTracker,2013-06-18 14:47:00,
2013-06-18 07:52:00,57.6,36.4,29.79,NNW,329,3.0,7.0,45,0.00,,,0.00,WeatherTracker,2013-06-18 14:52:00,
2013-06-18 07:57:00,57.9,37.8,29.78,NNW,335,4.0,6.0,47,0.00,,,0.00,WeatherTracker,2013-06-18 14:57:00,
2013-06-18 08:02:00,58.2,38.6,29.78,NW,316,0.0,6.0,48,0.00,,,0.00,WeatherTracker,2013-06-18 15:02:00,
2013-06-18 08:07:00,58.9,38.7,29.78,NW,325,4.0,6.0,47,0.00,,,0.00,WeatherTracker,2013-06-18 15:07:00,
2013-06-18 08:12:00,59.8,40.1,29.78,NW,306,2.0,5.0,48,0.00,,,0.00,WeatherTracker,2013-06-18 15:12:00,
2013-06-18 08:17:00,60.7,39.2,29.77,NW,306,2.0,5.0,45,0.00,,,0.00,WeatherTracker,2013-06-18 15:17:00,
2013-06-18 08:22:00,61.4,41.5,29.77,NW,306,4.0,5.0,48,0.00,,,0.00,WeatherTracker,2013-06-18 15:22:00,
2013-06-18 08:27:00,62.5,36.5,29.77,NW,309,0.0,4.0,38,0.00,,,0.00,WeatherTracker,2013-06-18 15:27:00,
2013-06-18 08:33:00,64.2,37.4,29.77,NW,308,1.0,5.0,37,0.00,,,0.00,WeatherTracker,2013-06-18 15:33:00,
2013-06-18 08:38:00,65.6,34.9,29.76,NW,309,0.0,5.0,32,0.00,,,0.00,WeatherTracker,2013-06-18 15:38:00,
2013-06-18 08:43:00,66.9,34.5,29.76,ENE,61,2.0,3.0,30,0.00,,,0.00,WeatherTracker,2013-06-18 15:43:00,
2013-06-18 08:48:00,68.3,33.9,29.76,ESE,118,2.0,4.0,28,0.00,,,0.00,WeatherTracker,2013-06-18 15:48:00,
2013-06-18 08:53:00,67.7,39.1,29.76,SSW,204,5.0,11.0,35,0.00,,,0.00,WeatherTracker,2013-06-18 15:53:00,
2013-06-18 08:58:00,67.4,34.9,29.76,South,173,6.0,18.0,30,0.00,,,0.00,WeatherTracker,2013-06-18 15:58:00,
2013-06-18 09:03:00,67.5,38.1,29.75,SE,141,10.0,18.0,34,0.00,,,0.00,WeatherTracker,2013-06-18 16:03:00,
2013-06-18 09:08:00,67.7,34.3,29.75,SSE,158,13.0,14.0,29,0.00,,,0.00,WeatherTracker,2013-06-18 16:08:00,
2013-06-18 09:13:00,67.9,35.3,29.75,SSE,150,9.0,22.0,30,0.00,,,0.00,WeatherTracker,2013-06-18 16:13:00,
2013-06-18 09:18:00,68.5,35.0,29.74,ESE,119,16.0,22.0,29,0.00,,,0.00,WeatherTracker,2013-06-18 16:18:00,
2013-06-18 09:23:00,68.8,32.5,29.74,SSE,151,10.0,23.0,26,0.00,,,0.00,WeatherTracker,2013-06-18 16:23:00,
2013-06-18 09:28:00,68.9,36.2,29.74,SE,141,10.0,24.0,30,0.00,,,0.00,WeatherTracker,2013-06-18 16:28:00,
2013-06-18 09:33:00,69.2,38.9,29.73,SSE,160,17.0,24.0,33,0.00,,,0.00,WeatherTracker,2013-06-18 16:33:00,
2013-06-18 09:38:00,69.3,33.9,29.73,ESE,118,6.0,21.0,27,0.00,,,0.00,WeatherTracker,2013-06-18 16:38:00,
2013-06-18 09:43:00,69.4,34.9,29.73,South,173,21.0,21.0,28,0.00,,,0.00,WeatherTracker,2013-06-18 16:43:00,
2013-06-18 09:48:00,69.4,34.9,29.73,SE,146,14.0,25.0,28,0.00,,,0.00,WeatherTracker,2013-06-18 16:48:00,
2013-06-18 09:53:00,69.6,35.0,29.72,SSE,162,13.0,25.0,28,0.00,,,0.00,WeatherTracker,2013-06-18 16:53:00,
2013-06-18 09:58:00,69.7,34.2,29.72,SSE,163,17.0,27.0,27,0.00,,,0.00,WeatherTracker,2013-06-18 16:58:00,
2013-06-18 10:03:00,69.8,36.1,29.72,ESE,121,5.0,27.0,29,0.00,,,0.00,WeatherTracker,2013-06-18 17:03:00,
2013-06-18 10:08:00,70.2,34.6,29.72,ESE,121,14.0,23.0,27,0.00,,,0.00,WeatherTracker,2013-06-18 17:08:00,
2013-06-18 10:13:00,70.4,33.9,29.72,South,172,16.0,25.0,26,0.00,,,0.00,WeatherTracker,2013-06-18 17:13:00,
2013-06-18 10:18:00,70.4,32.9,29.71,South,169,17.0,25.0,25,0.00,,,0.00,WeatherTracker,2013-06-18 17:18:00,
2013-06-18 10:23:00,70.3,36.5,29.71,SE,144,14.0,27.0,29,0.00,,,0.00,WeatherTracker,2013-06-18 17:23:00,
2013-06-18 10:28:00,71.0,36.2,29.72,South,172,17.0,27.0,28,0.00,,,0.00,WeatherTracker,2013-06-18 17:28:00,
2013-06-18 10:33:00,70.7,35.1,29.71,South,172,10.0,23.0,27,0.00,,,0.00,WeatherTracker,2013-06-18 17:33:00,
2013-06-18 10:38:00,71.1,34.5,29.71,South,171,28.0,29.0,26,0.00,,,0.00,WeatherTracker,2013-06-18 17:38:00,
2013-06-18 10:44:00,70.9,32.3,29.71,SSE,167,12.0,29.0,24,0.00,,,0.00,WeatherTracker,2013-06-18 17:44:00,
2013-06-18 10:49:00,71.0,34.4,29.70,SSE,148,11.0,28.0,26,0.00,,,0.00,WeatherTracker,2013-06-18 17:49:00,
2013-06-18 10:54:00,71.0,34.4,29.70,South,177,13.0,26.0,26,0.00,,,0.00,WeatherTracker,2013-06-18 17:54:00,
2013-06-18 10:59:00,71.3,38.3,29.70,SSE,163,20.0,28.0,30,0.00,,,0.00,WeatherTracker,2013-06-18 17:59:00,
2013-06-18 11:04:00,71.3,32.6,29.71,SE,145,17.0,28.0,24,0.00,,,0.00,WeatherTracker,2013-06-18 18:04:00,
2013-06-18 11:09:00,71.3,34.6,29.70,SSE,165,20.0,25.0,26,0.00,,,0.00,WeatherTracker,2013-06-18 18:09:00,
2013-06-18 11:14:00,71.3,37.4,29.70,SSE,152,16.0,25.0,29,0.00,,,0.00,WeatherTracker,2013-06-18 18:14:00,
2013-06-18 11:19:00,71.3,32.6,29.71,SSE,148,17.0,23.0,24,0.00,,,0.00,WeatherTracker,2013-06-18 18:19:00,
2013-06-18 11:24:00,71.5,39.3,29.70,SSE,148,7.0,30.0,31,0.00,,,0.00,WeatherTracker,2013-06-18 18:24:00,
2013-06-18 11:29:00,71.6,35.8,29.71,South,177,16.0,30.0,27,0.00,,,0.00,WeatherTracker,2013-06-18 18:29:00,
2013-06-18 11:34:00,72.0,35.2,29.71,SSE,158,15.0,30.0,26,0.00,,,0.00,WeatherTracker,2013-06-18 18:34:00,
2013-06-18 11:39:00,71.8,36.9,29.71,SSE,166,17.0,27.0,28,0.00,,,0.00,WeatherTracker,2013-06-18 18:39:00,
2013-06-18 11:44:00,71.8,38.7,29.71,SE,142,13.0,27.0,30,0.00,,,0.00,WeatherTracker,2013-06-18 18:44:00,
2013-06-18 11:49:00,72.1,32.3,29.70,SSW,209,13.0,27.0,23,0.00,,,0.00,WeatherTracker,2013-06-18 18:49:00,
2013-06-18 11:54:00,72.5,36.6,29.70,SSE,152,16.0,22.0,27,0.00,,,0.00,WeatherTracker,2013-06-18 18:54:00,
2013-06-18 11:59:00,72.4,35.6,29.71,SSE,160,15.0,20.0,26,0.00,,,0.00,WeatherTracker,2013-06-18 18:59:00,
2013-06-18 12:04:00,72.3,37.4,29.70,SSE,151,17.0,20.0,28,0.00,,,0.00,WeatherTracker,2013-06-18 19:04:00,
2013-06-18 12:09:00,72.6,35.7,29.70,SE,141,14.0,24.0,26,0.00,,,0.00,WeatherTracker,2013-06-18 19:09:00,
2013-06-18 12:14:00,72.3,35.5,29.71,SSE,150,11.0,27.0,26,0.00,,,0.00,WeatherTracker,2013-06-18 19:14:00,
2013-06-18 12:19:00,72.1,36.3,29.70,South,181,10.0,27.0,27,0.00,,,0.00,WeatherTracker,2013-06-18 19:19:00,
2013-06-18 12:24:00,72.6,36.7,29.70,SSE,167,7.0,22.0,27,0.00,,,0.00,WeatherTracker,2013-06-18 19:24:00,
2013-06-18 12:29:00,72.6,39.4,29.70,SE,140,15.0,20.0,30,0.00,,,0.00,WeatherTracker,2013-06-18 19:29:00,
2013-06-18 12:34:00,72.9,32.9,29.70,South,173,6.0,20.0,23,0.00,,,0.00,WeatherTracker,2013-06-18 19:34:00,
2013-06-18 12:39:00,73.2,38.1,29.70,SW,222,12.0,20.0,28,0.00,,,0.00,WeatherTracker,2013-06-18 19:39:00,
2013-06-18 12:44:00,72.6,32.7,29.69,ESE,112,5.0,21.0,23,0.00,,,0.00,WeatherTracker,2013-06-18 19:44:00,
2013-06-18 12:50:00,73.1,32.0,29.70,South,169,13.0,17.0,22,0.00,,,0.00,WeatherTracker,2013-06-18 19:50:00,
2013-06-18 12:55:00,72.7,37.7,29.69,South,189,12.0,21.0,28,0.00,,,0.00,WeatherTracker,2013-06-18 19:55:00,
2013-06-18 13:00:00,73.1,37.1,29.69,SSE,154,3.0,21.0,27,0.00,,,0.00,WeatherTracker,2013-06-18 20:00:00,
2013-06-18 13:05:00,73.5,32.3,29.69,NNW,339,7.0,14.0,22,0.00,,,0.00,WeatherTracker,2013-06-18 20:05:00,
2013-06-18 13:10:00,74.1,38.9,29.69,East,81,11.0,14.0,28,0.00,,,0.00,WeatherTracker,2013-06-18 20:10:00,
2013-06-18 13:15:00,75.5,34.0,29.68,NNW,343,5.0,11.0,22,0.00,,,0.00,WeatherTracker,2013-06-18 20:15:00,
2013-06-18 13:20:00,74.8,33.4,29.69,South,171,11.0,13.0,22,0.00,,,0.00,WeatherTracker,2013-06-18 20:20:00,
2013-06-18 13:25:00,73.3,36.3,29.69,SE,146,12.0,20.0,26,0.00,,,0.00,WeatherTracker,2013-06-18 20:25:00,
2013-06-18 13:30:00,73.0,34.1,29.69,South,177,0.0,21.0,24,0.00,,,0.00,WeatherTracker,2013-06-18 20:30:00,
2013-06-18 13:35:00,74.2,34.0,29.69,ESE,103,6.0,21.0,23,0.00,,,0.00,WeatherTracker,2013-06-18 20:35:00,
2013-06-18 13:40:00,74.5,35.3,29.69,NW,314,2.0,18.0,24,0.00,,,0.00,WeatherTracker,2013-06-18 20:40:00,
2013-06-18 13:45:00,73.8,29.0,29.69,West,273,1.0,18.0,19,0.00,,,0.00,WeatherTracker,2013-06-18 20:45:00,
2013-06-18 13:50:00,73.9,35.9,29.69,SSE,152,7.0,15.0,25,0.00,,,0.00,WeatherTracker,2013-06-18 20:50:00,
2013-06-18 13:55:00,73.8,33.7,29.69,SW,235,2.0,16.0,23,0.00,,,0.00,WeatherTracker,2013-06-18 20:55:00,
2013-06-18 14:00:00,73.7,34.7,29.69,South,173,15.0,25.0,24,0.00,,,0.00,WeatherTracker,2013-06-18 21:00:00,
2013-06-18 14:05:00,73.2,30.9,29.69,SSW,212,10.0,25.0,21,0.00,,,0.00,WeatherTracker,2013-06-18 21:05:00,
2013-06-18 14:10:00,72.7,31.7,29.69,SW,234,13.0,26.0,22,0.00,,,0.00,WeatherTracker,2013-06-18 21:10:00,
2013-06-18 14:15:00,72.9,31.8,29.69,South,184,20.0,28.0,22,0.00,,,0.00,WeatherTracker,2013-06-18 21:15:00,
2013-06-18 14:20:00,73.0,33.0,29.69,WNW,286,6.0,28.0,23,0.00,,,0.00,WeatherTracker,2013-06-18 21:20:00,
2013-06-18 14:25:00,72.5,30.3,29.68,SW,235,4.0,25.0,21,0.00,,,0.00,WeatherTracker,2013-06-18 21:25:00,
2013-06-18 14:30:00,72.8,32.8,29.68,South,189,13.0,25.0,23,0.00,,,0.00,WeatherTracker,2013-06-18 21:30:00,
2013-06-18 14:35:00,72.5,34.7,29.68,South,181,16.0,32.0,25,0.00,,,0.00,WeatherTracker,2013-06-18 21:35:00,
2013-06-18 14:40:00,72.4,32.5,29.68,South,171,14.0,32.0,23,0.00,,,0.00,WeatherTracker,2013-06-18 21:40:00,
2013-06-18 14:45:00,72.7,33.8,29.68,SSW,198,15.0,28.0,24,0.00,,,0.00,WeatherTracker,2013-06-18 21:45:00,
2013-06-18 14:51:00,72.4,33.6,29.68,South,169,22.0,35.0,24,0.00,,,0.00,WeatherTracker,2013-06-18 21:51:00,
2013-06-18 14:56:00,72.0,31.1,29.68,SSE,164,13.0,35.0,22,0.00,,,0.00,WeatherTracker,2013-06-18 21:56:00,
2013-06-18 15:01:00,72.3,32.4,29.68,South,175,15.0,32.0,23,0.00,,,0.00,WeatherTracker,2013-06-18 22:01:00,
2013-06-18 15:06:00,72.5,33.6,29.68,South,174,31.0,31.0,24,0.00,,,0.00,WeatherTracker,2013-06-18 22:06:00,
2013-06-18 15:11:00,72.4,31.4,29.68,South,175,17.0,34.0,22,0.00,,,0.00,WeatherTracker,2013-06-18 22:11:00,
2013-06-18 15:16:00,71.7,31.9,29.68,SSE,164,11.0,34.0,23,0.00,,,0.00,WeatherTracker,2013-06-18 22:16:00,
2013-06-18 15:21:00,71.6,31.8,29.67,SSW,197,19.0,32.0,23,0.00,,,0.00,WeatherTracker,2013-06-18 22:21:00,
2013-06-18 15:26:00,71.9,34.2,29.67,SSW,205,5.0,31.0,25,0.00,,,0.00,WeatherTracker,2013-06-18 22:26:00,
2013-06-18 15:31:00,72.3,31.3,29.68,SSW,192,19.0,31.0,22,0.00,,,0.00,WeatherTracker,2013-06-18 22:31:00,
2013-06-18 15:36:00,72.0,31.1,29.67,WNW,303,3.0,25.0,22,0.00,,,0.00,WeatherTracker,2013-06-18 22:36:00,
2013-06-18 15:41:00,72.1,30.0,29.67,SW,233,18.0,25.0,21,0.00,,,0.00,WeatherTracker,2013-06-18 22:41:00,
2013-06-18 15:46:00,70.9,30.2,29.67,South,176,15.0,40.0,22,0.00,,,0.00,WeatherTracker,2013-06-18 22:46:00,
2013-06-18 15:51:00,70.5,30.9,29.67,SSW,207,17.0,40.0,23,0.00,,,0.00,WeatherTracker,2013-06-18 22:51:00,
2013-06-18 15:56:00,70.8,32.2,29.67,WSW,238,11.0,32.0,24,0.00,,,0.00,WeatherTracker,2013-06-18 22:56:00,
2013-06-18 16:01:00,71.2,34.6,29.67,South,179,3.0,32.0,26,0.00,,,0.00,WeatherTracker,2013-06-18 23:01:00,
2013-06-18 16:06:00,70.6,34.0,29.66,South,173,22.0,32.0,26,0.00,,,0.00,WeatherTracker,2013-06-18 23:06:00,
2013-06-18 16:11:00,70.9,33.3,29.67,WSW,252,7.0,29.0,25,0.00,,,0.00,WeatherTracker,2013-06-18 23:11:00,
2013-06-18 16:16:00,70.7,32.1,29.67,SW,215,12.0,29.0,24,0.00,,,0.00,WeatherTracker,2013-06-18 23:16:00,
2013-06-18 16:21:00,69.9,34.4,29.67,SSE,165,13.0,33.0,27,0.00,,,0.00,WeatherTracker,2013-06-18 23:21:00,
2013-06-18 16:26:00,70.4,33.9,29.67,South,180,12.0,33.0,26,0.00,,,0.00,WeatherTracker,2013-06-18 23:26:00,
2013-06-18 16:31:00,70.4,33.9,29.66,SSW,207,13.0,25.0,26,0.00,,,0.00,WeatherTracker,2013-06-18 23:31:00,
2013-06-18 16:36:00,70.2,35.6,29.66,SSW,194,6.0,30.0,28,0.00,,,0.00,WeatherTracker,2013-06-18 23:36:00,
2013-06-18 16:41:00,70.2,34.6,29.67,NW,308,7.0,30.0,27,0.00,,,0.00,WeatherTracker,2013-06-18 23:41:00,
2013-06-18 16:46:00,69.9,32.5,29.66,South,172,18.0,33.0,25,0.00,,,0.00,WeatherTracker,2013-06-18 23:46:00,
2013-06-18 16:51:00,69.3,35.7,29.66,SW,225,9.0,33.0,29,0.00,,,0.00,WeatherTracker,2013-06-18 23:51:00,
2013-06-18 16:56:00,69.1,33.7,29.66,SSW,211,9.0,33.0,27,0.00,,,0.00,WeatherTracker,2013-06-18 23:56:00,
2013-06-18 17:01:00,68.8,34.4,29.67,SSW,207,16.0,27.0,28,0.00,,,0.00,WeatherTracker,2013-06-19 00:01:00,
2013-06-18 17:07:00,68.5,34.1,29.66,SW,216,12.0,32.0,28,0.00,,,0.00,WeatherTracker,2013-06-19 00:07:00,
2013-06-18 17:12:00,68.3,32.1,29.66,SW,223,21.0,32.0,26,0.00,,,0.00,WeatherTracker,2013-06-19 00:12:00,
2013-06-18 17:17:00,68.1,32.9,29.66,SW,230,10.0,37.0,27,0.00,,,0.00,WeatherTracker,2013-06-19 00:17:00,
2013-06-18 17:22:00,68.3,33.9,29.66,SW,229,13.0,37.0,28,0.00,,,0.00,WeatherTracker,2013-06-19 00:22:00,
2013-06-18 17:27:00,68.2,33.8,29.66,SW,230,13.0,24.0,28,0.00,,,0.00,WeatherTracker,2013-06-19 00:27:00,
2013-06-18 17:32:00,67.9,33.6,29.66,SW,227,16.0,33.0,28,0.00,,,0.00,WeatherTracker,2013-06-19 00:32:00,
2013-06-18 17:37:00,67.7,32.5,29.66,SW,215,13.0,33.0,27,0.00,,,0.00,WeatherTracker,2013-06-19 00:37:00,
2013-06-18 17:42:00,67.8,33.5,29.66,SW,235,14.0,33.0,28,0.00,,,0.00,WeatherTracker,2013-06-19 00:42:00,
2013-06-18 17:47:00,67.7,34.3,29.66,SSW,207,6.0,33.0,29,0.00,,,0.00,WeatherTracker,2013-06-19 00:47:00,
2013-06-18 17:52:00,67.2,33.0,29.66,WSW,237,17.0,32.0,28,0.00,,,0.00,WeatherTracker,2013-06-19 00:52:00,
2013-06-18 17:57:00,66.7,31.7,29.66,SSW,212,10.0,29.0,27,0.00,,,0.00,WeatherTracker,2013-06-19 00:57:00,
2013-06-18 18:02:00,66.6,31.6,29.66,SSE,148,22.0,30.0,27,0.00,,,0.00,WeatherTracker,2013-06-19 01:02:00,
2013-06-18 18:07:00,66.4,31.4,29.66,West,262,19.0,32.0,27,0.00,,,0.00,WeatherTracker,2013-06-19 01:07:00,
2013-06-18 18:12:00,66.2,28.3,29.66,SSW,206,16.0,35.0,24,0.00,,,0.00,WeatherTracker,2013-06-19 01:12:00,
2013-06-18 18:17:00,66.3,29.4,29.66,SW,218,31.0,35.0,25,0.00,,,0.00,WeatherTracker,2013-06-19 01:17:00,
2013-06-18 18:22:00,66.0,31.1,29.66,WSW,250,10.0,32.0,27,0.00,,,0.00,WeatherTracker,2013-06-19 01:22:00,
2013-06-18 18:27:00,65.7,31.7,29.66,SSW,192,9.0,33.0,28,0.00,,,0.00,WeatherTracker,2013-06-19 01:27:00,
2013-06-18 18:32:00,65.6,29.8,29.66,SW,234,17.0,33.0,26,0.00,,,0.00,WeatherTracker,2013-06-19 01:32:00,
2013-06-18 18:37:00,65.2,30.4,29.66,SW,226,11.0,38.0,27,0.00,,,0.00,WeatherTracker,2013-06-19 01:37:00,
2013-06-18 18:42:00,64.9,29.2,29.66,South,173,27.0,38.0,26,0.00,,,0.00,WeatherTracker,2013-06-19 01:42:00,
2013-06-18 18:47:00,64.6,30.8,29.66,SW,227,19.0,42.0,28,0.00,,,0.00,WeatherTracker,2013-06-19 01:47:00,
2013-06-18 18:52:00,64.3,30.5,29.66,SSW,205,22.0,42.0,28,0.00,,,0.00,WeatherTracker,2013-06-19 01:52:00,
2013-06-18 18:57:00,64.0,30.2,29.66,SSW,201,16.0,36.0,28,0.00,,,0.00,WeatherTracker,2013-06-19 01:57:00,
2013-06-18 19:02:00,64.1,29.4,29.67,SSW,192,23.0,36.0,27,0.00,,,0.00,WeatherTracker,2013-06-19 02:02:00,
2013-06-18 19:07:00,63.9,29.3,29.66,SSE,150,20.0,33.0,27,0.00,,,0.00,WeatherTracker,2013-06-19 02:07:00,
2013-06-18 19:12:00,63.6,28.1,29.66,SSW,194,13.0,30.0,26,0.00,,,0.00,WeatherTracker,2013-06-19 02:12:00,
2013-06-18 19:17:00,63.3,29.6,29.67,SSW,208,17.0,33.0,28,0.00,,,0.00,WeatherTracker,2013-06-19 02:17:00,
2013-06-18 19:23:00,63.5,28.0,29.67,SW,215,11.0,33.0,26,0.00,,,0.00,WeatherTracker,2013-06-19 02:23:00,
2013-06-18 19:28:00,63.4,27.0,29.67,SW,214,23.0,32.0,25,0.00,,,0.00,WeatherTracker,2013-06-19 02:28:00,
2013-06-18 19:33:00,63.2,24.8,29.67,SSW,204,12.0,32.0,23,0.00,,,0.00,WeatherTracker,2013-06-19 02:33:00,
2013-06-18 19:38:00,62.9,24.5,29.66,South,177,16.0,31.0,23,0.00,,,0.00,WeatherTracker,2013-06-19 02:38:00,
2013-06-18 19:43:00,62.6,24.3,29.67,SSW,200,3.0,30.0,23,0.00,,,0.00,WeatherTracker,2013-06-19 02:43:00,
2013-06-18 19:48:00,62.3,26.0,29.67,SSE,165,10.0,30.0,25,0.00,,,0.00,WeatherTracker,2013-06-19 02:48:00,
2013-06-18 19:53:00,61.9,25.7,29.68,SW,235,4.0,25.0,25,0.00,,,0.00,WeatherTracker,2013-06-19 02:53:00,
2013-06-18 19:58:00,61.8,25.6,29.68,North,2,6.0,25.0,25,0.00,,,0.00,WeatherTracker,2013-06-19 02:58:00,
2013-06-18 20:03:00,61.6,24.5,29.68,ESE,117,5.0,15.0,24,0.00,,,0.00,WeatherTracker,2013-06-19 03:03:00,
2013-06-18 20:08:00,61.4,25.3,29.69,WNW,288,5.0,17.0,25,0.00,,,0.00,WeatherTracker,2013-06-19 03:08:00,
2013-06-18 20:13:00,61.3,25.2,29.69,NNW,335,10.0,17.0,25,0.00,,,0.00,WeatherTracker,2013-06-19 03:13:00,
2013-06-18 20:18:00,61.0,25.9,29.69,SSW,208,3.0,11.0,26,0.00,,,0.00,WeatherTracker,2013-06-19 03:18:00,
2013-06-18 20:23:00,60.5,25.4,29.70,SW,233,4.0,11.0,26,0.00,,,0.00,WeatherTracker,2013-06-19 03:23:00,
2013-06-18 20:28:00,60.9,24.8,29.70,SE,135,0.0,9.0,25,0.00,,,0.00,WeatherTracker,2013-06-19 03:28:00,
2013-06-18 20:33:00,60.9,24.8,29.70,NW,321,3.0,11.0,25,0.00,,,0.00,WeatherTracker,2013-06-19 03:33:00,
2013-06-18 20:38:00,60.3,27.9,29.70,SSW,194,5.0,11.0,29,0.00,,,0.00,WeatherTracker,2013-06-19 03:38:00,
2013-06-18 20:43:00,58.6,27.3,29.71,SSE,164,3.0,13.0,30,0.00,,,0.00,WeatherTracker,2013-06-19 03:43:00,
2013-06-18 20:48:00,58.3,26.2,29.71,SW,230,4.0,13.0,29,0.00,,,0.00,WeatherTracker,2013-06-19 03:48:00,
2013-06-18 20:53:00,59.0,25.1,29.71,SW,235,2.0,12.0,27,0.00,,,0.00,WeatherTracker,2013-06-19 03:53:00,
2013-06-18 20:58:00,59.0,25.1,29.71,NNW,329,0.0,9.0,27,0.00,,,0.00,WeatherTracker,2013-06-19 03:58:00,
2013-06-18 21:01:00,59.0,25.9,29.71,NNW,330,1.0,6.0,28,0.00,,,0.00,WeatherTracker,2013-06-19 04:01:00,
2013-06-18 21:02:00,58.9,26.7,29.72,NNW,329,3.0,6.0,29,0.00,,,0.00,WeatherTracker,2013-06-19 04:02:00,
2013-06-18 21:07:00,58.3,25.3,29.71,ESE,102,4.0,6.0,28,0.00,,,0.00,WeatherTracker,2013-06-19 04:07:00,
2013-06-18 21:12:00,57.1,26.0,29.72,East,96,3.0,10.0,30,0.00,,,0.00,WeatherTracker,2013-06-19 04:12:00,
2013-06-18 21:17:00,56.5,25.4,29.72,NW,320,7.0,10.0,30,0.00,,,0.00,WeatherTracker,2013-06-19 04:17:00,
2013-06-18 21:22:00,57.3,22.7,29.72,NNE,25,5.0,11.0,26,0.00,,,0.00,WeatherTracker,2013-06-19 04:22:00,
2013-06-18 21:27:00,57.8,24.9,29.72,North,8,3.0,18.0,28,0.00,,,0.00,WeatherTracker,2013-06-19 04:27:00,
2013-06-18 21:33:00,57.9,22.3,29.72,NNW,346,3.0,18.0,25,0.00,,,0.00,WeatherTracker,2013-06-19 04:33:00,
2013-06-18 21:38:00,57.5,25.5,29.73,NE,41,3.0,10.0,29,0.00,,,0.00,WeatherTracker,2013-06-19 04:38:00,
2013-06-18 21:43:00,56.6,25.5,29.73,North,9,7.0,10.0,30,0.00,,,0.00,WeatherTracker,2013-06-19 04:43:00,
2013-06-18 21:48:00,56.1,27.4,29.73,North,357,6.0,9.0,33,0.00,,,0.00,WeatherTracker,2013-06-19 04:48:00,
2013-06-18 21:53:00,55.5,26.1,29.73,North,358,4.0,9.0,32,0.00,,,0.00,WeatherTracker,2013-06-19 04:53:00,
2013-06-18 21:58:00,55.3,26.7,29.73,NE,39,1.0,8.0,33,0.00,,,0.00,WeatherTracker,2013-06-19 04:58:00,
2013-06-18 22:03:00,54.9,26.3,29.73,NNW,343,10.0,10.0,33,0.00,,,0.00,WeatherTracker,2013-06-19 05:03:00,
2013-06-18 22:08:00,55.3,26.0,29.73,North,358,6.0,13.0,32,0.00,,,0.00,WeatherTracker,2013-06-19 05:08:00,
2013-06-18 22:13:00,57.1,20.7,29.73,North,355,1.0,15.0,24,0.00,,,0.00,WeatherTracker,2013-06-19 05:13:00,
2013-06-18 22:18:00,57.3,21.8,29.73,NNE,24,4.0,15.0,25,0.00,,,0.00,WeatherTracker,2013-06-19 05:18:00,
2013-06-18 22:23:00,57.4,22.8,29.73,North,4,8.0,15.0,26,0.00,,,0.00,WeatherTracker,2013-06-19 05:23:00,
2013-06-18 22:28:00,56.6,21.2,29.73,NNE,21,4.0,15.0,25,0.00,,,0.00,WeatherTracker,2013-06-19 05:28:00,
2013-06-18 22:33:00,56.4,24.5,29.74,NE,42,2.0,15.0,29,0.00,,,0.00,WeatherTracker,2013-06-19 05:33:00,
2013-06-18 22:38:00,56.0,23.4,29.74,NE,37,2.0,15.0,28,0.00,,,0.00,WeatherTracker,2013-06-19 05:38:00,
2013-06-18 22:43:00,55.5,24.6,29.74,NE,36,7.0,9.0,30,0.00,,,0.00,WeatherTracker,2013-06-19 05:43:00,
2013-06-18 22:48:00,56.2,22.7,29.74,NNW,335,6.0,11.0,27,0.00,,,0.00,WeatherTracker,2013-06-19 05:48:00,
2013-06-18 22:53:00,55.9,23.3,29.74,North,6,0.0,12.0,28,0.00,,,0.00,WeatherTracker,2013-06-19 05:53:00,
2013-06-18 22:59:00,55.5,22.1,29.73,WNW,299,13.0,13.0,27,0.00,,,0.00,WeatherTracker,2013-06-19 05:59:00,
2013-06-18 23:04:00,57.0,20.6,29.74,WNW,283,3.0,22.0,24,0.00,,,0.00,WeatherTracker,2013-06-19 06:04:00,
2013-06-18 23:09:00,56.5,22.0,29.74,South,185,1.0,22.0,26,0.00,,,0.00,WeatherTracker,2013-06-19 06:09:00,
2013-06-18 23:14:00,56.2,21.8,29.74,South,178,9.0,18.0,26,0.00,,,0.00,WeatherTracker,2013-06-19 06:14:00,
2013-06-18 23:19:00,56.6,14.8,29.74,South,182,4.0,20.0,19,0.00,,,0.00,WeatherTracker,2013-06-19 06:19:00,
2013-06-18 23:24:00,57.9,14.7,29.74,WSW,257,11.0,21.0,18,0.00,,,0.00,WeatherTracker,2013-06-19 06:24:00,
2013-06-18 23:29:00,58.0,18.3,29.74,SW,216,17.0,31.0,21,0.00,,,0.00,WeatherTracker,2013-06-19 06:29:00,
2013-06-18 23:34:00,55.2,25.1,29.74,South,179,1.0,31.0,31,0.00,,,0.00,WeatherTracker,2013-06-19 06:34:00,
2013-06-18 23:39:00,53.0,22.4,29.74,SSW,192,0.0,19.0,30,0.00,,,0.00,WeatherTracker,2013-06-19 06:39:00,
2013-06-18 23:44:00,52.8,22.2,29.74,North,8,0.0,17.0,30,0.00,,,0.00,WeatherTracker,2013-06-19 06:44:00,
2013-06-18 23:49:00,52.7,22.9,29.75,North,2,4.0,5.0,31,0.00,,,0.00,WeatherTracker,2013-06-19 06:49:00,
2013-06-18 23:54:00,53.1,22.5,29.75,NNE,23,2.0,6.0,30,0.00,,,0.00,WeatherTracker,2013-06-19 06:54:00,
2013-06-18 23:59:00,53.0,21.6,29.75,ENE,71,9.0,9.0,29,0.00,,,0.00,WeatherTracker,2013-06-19 06:59:00,